createdAt,value
2023-05-03T00:00:51.606Z,7.2
2023-05-03T00:02:05.936Z,7.1
2023-05-03T00:03:20.297Z,7.1
2023-05-03T00:04:34.655Z,7.1
2023-05-03T00:05:49.023Z,7.1
2023-05-03T00:07:03.361Z,7.1
2023-05-03T00:08:17.725Z,7.1
2023-05-03T00:09:32.064Z,7.1
2023-05-03T00:10:46.422Z,7
2023-05-03T00:11:59.840Z,7
2023-05-03T00:13:14.184Z,6.9
2023-05-03T00:14:28.548Z,6.9
2023-05-03T00:15:42.890Z,6.9
2023-05-03T00:16:57.267Z,6.8
2023-05-03T00:18:11.605Z,6.8
2023-05-03T00:19:25.954Z,6.8
2023-05-03T00:20:40.330Z,6.8
2023-05-03T00:21:54.685Z,6.9
2023-05-03T00:23:09.026Z,6.9
2023-05-03T00:24:23.370Z,7
2023-05-03T00:25:37.743Z,7
2023-05-03T00:26:52.110Z,7
2023-05-03T00:28:06.448Z,7
2023-05-03T00:29:19.856Z,6.9
2023-05-03T00:30:34.208Z,6.8
2023-05-03T00:33:02.909Z,6.7
2023-05-03T00:34:17.285Z,6.8
2023-05-03T00:36:45.986Z,6.8
2023-05-03T00:38:00.321Z,6.8
2023-05-03T00:39:14.677Z,6.7
2023-05-03T00:40:29.034Z,6.7
2023-05-03T00:41:43.391Z,6.6
2023-05-03T00:42:57.769Z,6.6
2023-05-03T00:44:12.098Z,6.5
2023-05-03T00:45:25.524Z,6.5
2023-05-03T00:47:54.223Z,6.4
2023-05-03T00:49:07.634Z,6.4
2023-05-03T00:50:21.062Z,6.4
2023-05-03T00:51:35.404Z,6.4
2023-05-03T00:54:04.109Z,6.3
2023-05-03T00:55:18.482Z,6.3
2023-05-03T00:56:32.843Z,6.2
2023-05-03T00:59:01.523Z,6.3
2023-05-03T01:00:15.874Z,6.3
2023-05-03T01:01:30.238Z,6.3
2023-05-03T01:02:44.620Z,6.2
2023-05-03T01:05:13.296Z,6.2
2023-05-03T01:06:26.721Z,6.2
2023-05-03T01:07:40.131Z,6.2
2023-05-03T01:10:08.841Z,6.1
2023-05-03T01:11:23.186Z,6
2023-05-03T01:12:37.566Z,5.9
2023-05-03T01:13:51.906Z,5.9
2023-05-03T01:15:06.255Z,5.8
2023-05-03T01:16:20.615Z,5.7
2023-05-03T01:17:34.973Z,5.6
2023-05-03T01:18:49.322Z,5.6
2023-05-03T01:20:03.681Z,5.7
2023-05-03T01:21:18.032Z,5.7
2023-05-03T01:22:32.403Z,5.6
2023-05-03T01:23:46.748Z,5.6
2023-05-03T01:25:01.229Z,5.5
2023-05-03T01:26:15.581Z,5.4
2023-05-03T01:27:29.926Z,5.4
2023-05-03T01:28:44.278Z,5.4
2023-05-03T01:29:58.646Z,5.4
2023-05-03T01:32:27.346Z,5.5
2023-05-03T01:33:41.703Z,5.6
2023-05-03T01:34:56.053Z,5.6
2023-05-03T01:36:09.508Z,5.6
2023-05-03T01:37:22.883Z,5.7
2023-05-03T01:38:37.271Z,5.7
2023-05-03T01:39:51.602Z,5.7
2023-05-03T01:41:05.958Z,5.6
2023-05-03T01:43:34.658Z,5.6
2023-05-03T01:44:49.015Z,5.6
2023-05-03T01:46:03.393Z,5.6
2023-05-03T01:47:17.726Z,5.6
2023-05-03T01:49:46.429Z,5.6
2023-05-03T01:51:00.788Z,5.6
2023-05-03T01:52:14.238Z,5.6
2023-05-03T01:53:27.616Z,5.6
2023-05-03T01:54:41.967Z,5.6
2023-05-03T01:55:56.328Z,5.6
2023-05-03T01:58:25.056Z,5.6
2023-05-03T02:00:53.742Z,5.5
2023-05-03T02:02:08.103Z,5.5
2023-05-03T02:03:22.462Z,5.6
2023-05-03T02:04:36.825Z,5.7
2023-05-03T02:05:51.163Z,5.7
2023-05-03T02:07:05.535Z,5.8
2023-05-03T02:08:19.910Z,5.8
2023-05-03T02:09:33.281Z,5.8
2023-05-03T02:10:47.640Z,5.8
2023-05-03T02:12:01.994Z,5.8
2023-05-03T02:13:16.342Z,5.8
2023-05-03T02:14:30.705Z,5.8
2023-05-03T02:15:45.052Z,5.8
2023-05-03T02:16:59.408Z,5.9
2023-05-03T02:18:13.762Z,5.8
2023-05-03T02:19:28.123Z,5.7
2023-05-03T02:20:42.470Z,5.6
2023-05-03T02:21:56.823Z,5.5
2023-05-03T02:23:11.213Z,5.4
2023-05-03T02:24:24.610Z,5.3
2023-05-03T02:25:38.990Z,5.4
2023-05-03T02:28:06.722Z,5.4
2023-05-03T02:29:21.096Z,5.4
2023-05-03T02:30:35.432Z,5.4
2023-05-03T02:31:49.811Z,5.5
2023-05-03T02:33:04.136Z,5.5
2023-05-03T02:34:18.518Z,5.6
2023-05-03T02:35:32.875Z,5.5
2023-05-03T02:36:47.202Z,5.5
2023-05-03T02:38:01.575Z,5.6
2023-05-03T02:39:15.910Z,5.5
2023-05-03T02:40:30.271Z,5.5
2023-05-03T02:41:44.637Z,5.4
2023-05-03T02:42:58.027Z,5.4
2023-05-03T02:44:12.395Z,5.4
2023-05-03T02:45:26.734Z,5.4
2023-05-03T02:46:41.098Z,5.4
2023-05-03T02:47:55.475Z,5.4
2023-05-03T02:49:09.807Z,5.4
2023-05-03T02:50:24.156Z,5.3
2023-05-03T02:51:37.581Z,5.2
2023-05-03T02:52:51.006Z,5.2
2023-05-03T02:54:05.340Z,5.1
2023-05-03T02:56:34.059Z,5.1
2023-05-03T02:57:48.411Z,5.1
2023-05-03T02:59:02.784Z,5.1
2023-05-03T03:00:17.117Z,5.1
2023-05-03T03:01:31.477Z,5.1
2023-05-03T03:02:45.829Z,5.1
2023-05-03T03:04:00.216Z,5
2023-05-03T03:05:14.539Z,5
2023-05-03T03:06:28.900Z,5
2023-05-03T03:07:43.253Z,4.9
2023-05-03T03:08:56.673Z,5
2023-05-03T03:10:11.014Z,5
2023-05-03T03:11:25.316Z,5
2023-05-03T03:12:39.610Z,5.1
2023-05-03T03:13:53.943Z,5.2
2023-05-03T03:15:08.244Z,5.2
2023-05-03T03:16:22.515Z,5.3
2023-05-03T03:17:36.809Z,5.3
2023-05-03T03:18:51.115Z,5.3
2023-05-03T03:20:05.423Z,5.3
2023-05-03T03:21:19.716Z,5.3
2023-05-03T03:22:34.042Z,5.2
2023-05-03T03:23:48.310Z,5.2
2023-05-03T03:25:01.665Z,5.1
2023-05-03T03:26:15.963Z,5.1
2023-05-03T03:27:30.297Z,5
2023-05-03T03:28:44.580Z,5
2023-05-03T03:29:58.891Z,5
2023-05-03T03:31:13.170Z,5
2023-05-03T03:32:27.499Z,5.1
2023-05-03T03:36:10.402Z,5.1
2023-05-03T03:37:24.676Z,5.2
2023-05-03T03:38:38.986Z,5.2
2023-05-03T03:39:53.277Z,5.2
2023-05-03T03:41:07.615Z,5.2
2023-05-03T03:42:20.943Z,5.3
2023-05-03T03:43:35.262Z,5.4
2023-05-03T03:44:49.537Z,5.4
2023-05-03T03:46:03.860Z,5.4
2023-05-03T03:47:18.130Z,5.4
2023-05-03T03:48:32.455Z,5.3
2023-05-03T03:49:46.750Z,5.3
2023-05-03T03:51:01.034Z,5.3
2023-05-03T03:52:15.375Z,5.4
2023-05-03T03:53:29.636Z,5.4
2023-05-03T03:54:43.943Z,5.5
2023-05-03T03:55:58.254Z,5.5
2023-05-03T03:57:12.546Z,5.5
2023-05-03T03:58:25.895Z,5.4
2023-05-03T03:59:40.193Z,5.3
2023-05-03T04:00:54.491Z,5.3
2023-05-03T04:02:08.798Z,5.3
2023-05-03T04:03:23.101Z,5.3
2023-05-03T04:04:36.471Z,5.3
2023-05-03T04:05:50.789Z,5.3
2023-05-03T04:07:05.051Z,5.2
2023-05-03T04:08:19.372Z,5.2
2023-05-03T04:09:33.670Z,5.2
2023-05-03T04:10:47.993Z,5.2
2023-05-03T04:12:02.265Z,5.2
2023-05-03T04:13:16.564Z,5.2
2023-05-03T04:14:30.865Z,5.2
2023-05-03T04:15:45.177Z,5.2
2023-05-03T04:16:59.465Z,5.1
2023-05-03T04:18:13.766Z,5.1
2023-05-03T04:19:28.069Z,5.1
2023-05-03T04:20:41.458Z,5
2023-05-03T04:21:55.723Z,5.1
2023-05-03T04:23:10.033Z,5.1
2023-05-03T04:25:38.644Z,5.2
2023-05-03T04:26:52.925Z,5.3
2023-05-03T04:28:07.219Z,5.4
2023-05-03T04:29:21.531Z,5.3
2023-05-03T04:30:35.836Z,5.4
2023-05-03T04:31:50.126Z,5.4
2023-05-03T04:33:04.432Z,5.5
2023-05-03T04:34:18.724Z,5.5
2023-05-03T04:35:33.035Z,5.5
2023-05-03T04:36:47.358Z,5.6
2023-05-03T04:38:01.645Z,5.6
2023-05-03T04:39:14.978Z,5.6
2023-05-03T04:40:29.282Z,5.6
2023-05-03T04:41:43.594Z,5.6
2023-05-03T04:42:57.888Z,5.6
2023-05-03T04:44:12.211Z,5.6
2023-05-03T04:45:26.488Z,5.6
2023-05-03T04:46:40.785Z,5.6
2023-05-03T04:47:55.093Z,5.6
2023-05-03T04:49:09.392Z,5.7
2023-05-03T04:50:23.732Z,5.7
2023-05-03T04:51:38.006Z,5.7
2023-05-03T04:52:52.301Z,5.8
2023-05-03T04:54:06.590Z,5.8
2023-05-03T04:55:19.966Z,5.9
2023-05-03T04:56:34.246Z,6.1
2023-05-03T04:57:48.541Z,6.2
2023-05-03T04:59:02.840Z,6.4
2023-05-03T05:00:17.158Z,6.5
2023-05-03T05:01:31.484Z,6.5
2023-05-03T05:02:45.748Z,6.6
2023-05-03T05:04:00.065Z,6.7
2023-05-03T05:05:14.379Z,6.8
2023-05-03T05:06:28.646Z,6.9
2023-05-03T05:07:42.948Z,7.1
2023-05-03T05:08:57.256Z,7.2
2023-05-03T05:10:11.570Z,7.2
2023-05-03T05:11:24.906Z,7.3
2023-05-03T05:12:39.200Z,7.4
2023-05-03T05:13:53.507Z,7.5
2023-05-03T05:15:07.806Z,7.7
2023-05-03T05:16:22.106Z,8.1
2023-05-03T05:17:36.411Z,8.2
2023-05-03T05:18:50.739Z,8.5
2023-05-03T05:20:05.015Z,8.7
2023-05-03T05:21:19.307Z,8.8
2023-05-03T05:22:33.622Z,8.6
2023-05-03T05:23:47.908Z,8.5
2023-05-03T05:25:02.221Z,8.6
2023-05-03T05:26:16.515Z,8.8
2023-05-03T05:27:29.896Z,9.2
2023-05-03T05:28:44.187Z,9.2
2023-05-03T05:29:58.467Z,8.9
2023-05-03T05:31:12.762Z,8.8
2023-05-03T05:32:27.102Z,9
2023-05-03T05:33:41.379Z,9.3
2023-05-03T05:34:55.678Z,9.6
2023-05-03T05:37:24.309Z,10.2
2023-05-03T05:38:38.583Z,10.3
2023-05-03T05:39:52.915Z,10.3
2023-05-03T05:41:07.203Z,10
2023-05-03T05:43:35.777Z,10.3
2023-05-03T05:44:49.138Z,10.5
2023-05-03T05:46:03.458Z,10.5
2023-05-03T05:48:32.032Z,9.9
2023-05-03T05:49:46.332Z,9.8
2023-05-03T05:50:59.729Z,9.8
2023-05-03T05:52:14.002Z,10
2023-05-03T05:54:42.605Z,11
2023-05-03T05:55:55.949Z,11.4
2023-05-03T05:57:10.253Z,11.5
2023-05-03T05:58:24.581Z,11.5
2023-05-03T05:59:38.886Z,11.5
2023-05-03T06:00:53.151Z,11.6
2023-05-03T06:02:07.479Z,11.3
2023-05-03T06:03:21.761Z,11.2
2023-05-03T06:04:36.063Z,11.1
2023-05-03T06:05:50.369Z,11
2023-05-03T06:07:04.666Z,11.1
2023-05-03T06:08:18.955Z,11.1
2023-05-03T06:10:47.563Z,11.4
2023-05-03T06:12:00.928Z,11.6
2023-05-03T06:13:14.308Z,11.7
2023-05-03T06:14:28.618Z,11.7
2023-05-03T06:15:42.889Z,11.8
2023-05-03T06:16:57.183Z,12
2023-05-03T06:18:11.493Z,11.8
2023-05-03T06:19:25.806Z,11.7
2023-05-03T06:20:40.081Z,11.9
2023-05-03T06:21:54.396Z,11.9
2023-05-03T06:23:08.707Z,12
2023-05-03T06:24:22.985Z,12.1
2023-05-03T06:25:36.349Z,12.1
2023-05-03T06:26:50.667Z,11.8
2023-05-03T06:28:04.967Z,11.8
2023-05-03T06:29:19.268Z,11.8
2023-05-03T06:31:47.866Z,11.8
2023-05-03T06:33:01.234Z,11.7
2023-05-03T06:34:15.503Z,11.7
2023-05-03T06:35:29.802Z,11.5
2023-05-03T06:36:44.116Z,11.3
2023-05-03T06:37:58.408Z,11.4
2023-05-03T06:40:27.015Z,11.9
2023-05-03T06:41:40.384Z,12
2023-05-03T06:44:08.036Z,11.9
2023-05-03T06:45:22.319Z,12.2
2023-05-03T06:46:36.653Z,12.2
2023-05-03T06:47:50.924Z,12.1
2023-05-03T06:50:19.555Z,12.3
2023-05-03T06:51:33.831Z,12.3
2023-05-03T06:52:48.125Z,12.3
2023-05-03T06:54:02.420Z,12
2023-05-03T06:55:16.738Z,11.8
2023-05-03T06:56:31.053Z,11.5
2023-05-03T06:57:45.331Z,11.4
2023-05-03T06:58:58.674Z,11.7
2023-05-03T07:01:27.278Z,12.1
2023-05-03T07:02:41.583Z,12.1
2023-05-03T07:03:55.877Z,12.2
2023-05-03T07:05:10.184Z,12.3
2023-05-03T07:06:24.489Z,12.5
2023-05-03T07:07:38.780Z,12.7
2023-05-03T07:08:53.075Z,12.4
2023-05-03T07:10:07.409Z,12.4
2023-05-03T07:11:21.695Z,12.4
2023-05-03T07:12:36.010Z,12.5
2023-05-03T07:13:50.280Z,12.8
2023-05-03T07:15:03.660Z,13
2023-05-03T07:17:32.234Z,13.1
2023-05-03T07:18:46.545Z,13.1
2023-05-03T07:20:00.846Z,13.1
2023-05-03T07:21:15.127Z,13.2
2023-05-03T07:22:29.447Z,13.4
2023-05-03T07:23:43.737Z,13.6
2023-05-03T07:24:58.032Z,13.5
2023-05-03T07:26:12.371Z,13.5
2023-05-03T07:27:26.636Z,13.6
2023-05-03T07:28:40.939Z,13.5
2023-05-03T07:29:54.317Z,13.5
2023-05-03T07:31:08.614Z,13.5
2023-05-03T07:32:21.953Z,13.7
2023-05-03T07:33:36.278Z,13.8
2023-05-03T07:34:50.554Z,13.8
2023-05-03T07:36:04.860Z,13.7
2023-05-03T07:37:19.163Z,13.9
2023-05-03T07:38:33.467Z,13.8
2023-05-03T07:39:47.767Z,13.6
2023-05-03T07:41:01.117Z,13.6
2023-05-03T07:42:15.421Z,13.5
2023-05-03T07:43:29.719Z,12.7
2023-05-03T07:44:43.068Z,12.5
2023-05-03T07:45:57.368Z,12.7
2023-05-03T07:47:11.668Z,13.2
2023-05-03T07:48:26.002Z,13.7
2023-05-03T07:50:54.571Z,14.2
2023-05-03T07:52:08.879Z,14.5
2023-05-03T07:53:23.202Z,14.5
2023-05-03T07:54:37.475Z,14.4
2023-05-03T07:55:51.771Z,14.5
2023-05-03T07:57:06.088Z,14.4
2023-05-03T07:58:20.377Z,14.5
2023-05-03T07:59:34.677Z,14.6
2023-05-03T08:02:02.330Z,13.7
2023-05-03T08:03:15.689Z,13.7
2023-05-03T08:04:29.049Z,14
2023-05-03T08:05:43.347Z,14.3
2023-05-03T08:06:57.639Z,13.6
2023-05-03T08:08:11.948Z,12.7
2023-05-03T08:09:26.255Z,12.2
2023-05-03T08:10:40.543Z,12
2023-05-03T08:11:54.843Z,11.9
2023-05-03T08:13:09.150Z,11.8
2023-05-03T08:14:22.504Z,11.5
2023-05-03T08:15:36.815Z,11.2
2023-05-03T08:16:50.181Z,11.4
2023-05-03T08:19:18.808Z,12.8
2023-05-03T08:20:33.075Z,13.4
2023-05-03T08:21:47.372Z,13.6
2023-05-03T08:23:00.724Z,13.9
2023-05-03T08:24:15.018Z,14
2023-05-03T08:25:29.334Z,13.6
2023-05-03T08:26:43.633Z,13.2
2023-05-03T08:27:57.920Z,13.4
2023-05-03T08:30:26.527Z,13.9
2023-05-03T08:31:40.823Z,14.2
2023-05-03T08:32:55.165Z,14
2023-05-03T08:35:23.730Z,12.9
2023-05-03T08:36:38.032Z,12.6
2023-05-03T08:37:51.422Z,12.7
2023-05-03T08:39:05.729Z,12.5
2023-05-03T08:41:34.295Z,12.7
2023-05-03T08:42:47.635Z,12.5
2023-05-03T08:44:01.976Z,12.1
2023-05-03T08:45:16.254Z,11.8
2023-05-03T08:46:30.541Z,11.7
2023-05-03T08:47:44.872Z,11.8
2023-05-03T08:48:59.183Z,12
2023-05-03T08:50:13.454Z,12.1
2023-05-03T08:51:27.743Z,12.6
2023-05-03T08:52:42.053Z,13.1
2023-05-03T08:53:56.349Z,13
2023-05-03T08:55:10.645Z,13.3
2023-05-03T08:57:39.254Z,13.5
2023-05-03T08:58:53.541Z,13.7
2023-05-03T09:00:07.856Z,14.1
2023-05-03T09:01:21.214Z,14.4
2023-05-03T09:03:48.875Z,14.6
2023-05-03T09:05:03.157Z,14.3
2023-05-03T09:06:17.462Z,14
2023-05-03T09:07:31.759Z,13.9
2023-05-03T09:08:46.075Z,14
2023-05-03T09:10:00.394Z,14.2
2023-05-03T09:11:14.661Z,14.1
2023-05-03T09:12:28.965Z,14
2023-05-03T09:14:57.573Z,14.6
2023-05-03T09:16:11.861Z,14.9
2023-05-03T09:17:26.179Z,15.2
2023-05-03T09:18:40.480Z,15.5
2023-05-03T09:19:54.774Z,15.8
2023-05-03T09:21:08.123Z,16.1
2023-05-03T09:22:22.413Z,15.9
2023-05-03T09:23:36.724Z,15.6
2023-05-03T09:24:51.024Z,14.7
2023-05-03T09:26:05.355Z,14.8
2023-05-03T09:27:19.613Z,15.1
2023-05-03T09:28:33.959Z,15.2
2023-05-03T09:31:02.517Z,15.4
2023-05-03T09:32:16.817Z,15.8
2023-05-03T09:33:31.152Z,16
2023-05-03T09:34:45.417Z,15.9
2023-05-03T09:35:59.717Z,15.8
2023-05-03T09:37:14.016Z,15.6
2023-05-03T09:38:27.401Z,15.6
2023-05-03T09:39:41.671Z,15.3
2023-05-03T09:42:09.343Z,14.8
2023-05-03T09:43:22.691Z,15.1
2023-05-03T09:44:37.016Z,15.4
2023-05-03T09:45:51.283Z,15.6
2023-05-03T09:47:05.632Z,15.8
2023-05-03T09:48:19.903Z,15
2023-05-03T09:49:34.191Z,14.9
2023-05-03T09:50:48.521Z,15.1
2023-05-03T09:52:02.806Z,15.1
2023-05-03T09:53:17.092Z,15.2
2023-05-03T09:54:31.407Z,15.2
2023-05-03T09:55:45.691Z,14.6
2023-05-03T09:56:59.057Z,14.5
2023-05-03T09:59:26.750Z,14.4
2023-05-03T10:00:41.009Z,14.4
2023-05-03T10:01:55.307Z,14.2
2023-05-03T10:04:23.913Z,14.5
2023-05-03T10:05:38.208Z,14.7
2023-05-03T10:06:52.555Z,15.1
2023-05-03T10:08:06.816Z,15.2
2023-05-03T10:09:21.127Z,15.1
2023-05-03T10:10:35.410Z,14.5
2023-05-03T10:11:49.718Z,14.3
2023-05-03T10:13:04.018Z,14.2
2023-05-03T10:15:32.615Z,14.9
2023-05-03T10:16:45.987Z,15
2023-05-03T10:17:59.378Z,15
2023-05-03T10:19:13.642Z,15.4
2023-05-03T10:20:27.941Z,15.7
2023-05-03T10:21:42.248Z,15.7
2023-05-03T10:22:56.535Z,15.5
2023-05-03T10:24:10.847Z,15.6
2023-05-03T10:25:25.171Z,15.2
2023-05-03T10:26:39.436Z,14.7
2023-05-03T10:27:53.735Z,14.6
2023-05-03T10:29:08.073Z,14.7
2023-05-03T10:30:22.337Z,14.8
2023-05-03T10:31:35.715Z,15
2023-05-03T10:32:50.010Z,15
2023-05-03T10:34:04.347Z,14.8
2023-05-03T10:35:17.652Z,14.9
2023-05-03T10:36:31.950Z,15
2023-05-03T10:37:46.288Z,15.2
2023-05-03T10:39:00.557Z,15.4
2023-05-03T10:40:14.870Z,15.6
2023-05-03T10:41:29.170Z,15.9
2023-05-03T10:43:57.755Z,15.4
2023-05-03T10:45:12.054Z,15
2023-05-03T10:46:26.360Z,14.9
2023-05-03T10:47:40.671Z,14.7
2023-05-03T10:48:54.956Z,14.7
2023-05-03T10:50:09.269Z,14.9
2023-05-03T10:51:23.602Z,15.1
2023-05-03T10:52:36.916Z,15.2
2023-05-03T10:55:05.513Z,15.2
2023-05-03T10:56:19.823Z,15.1
2023-05-03T10:57:34.108Z,15.4
2023-05-03T10:58:48.411Z,15.5
2023-05-03T11:00:02.711Z,15.7
2023-05-03T11:01:17.009Z,15.7
2023-05-03T11:02:31.353Z,15.4
2023-05-03T11:03:45.614Z,15.2
2023-05-03T11:04:59.952Z,15
2023-05-03T11:06:14.249Z,14.7
2023-05-03T11:07:28.548Z,14.6
2023-05-03T11:08:41.901Z,14.7
2023-05-03T11:11:09.559Z,15.1
2023-05-03T11:12:22.916Z,15.4
2023-05-03T11:13:37.205Z,15.7
2023-05-03T11:14:51.521Z,15.6
2023-05-03T11:16:05.807Z,15.7
2023-05-03T11:17:20.111Z,15.8
2023-05-03T11:18:34.419Z,15.7
2023-05-03T11:19:48.711Z,15.5
2023-05-03T11:21:02.077Z,15.2
2023-05-03T11:22:15.439Z,15.1
2023-05-03T11:23:29.736Z,15.1
2023-05-03T11:24:44.038Z,15.1
2023-05-03T11:25:58.333Z,15.1
2023-05-03T11:27:12.641Z,15.3
2023-05-03T11:28:26.933Z,15.5
2023-05-03T11:29:41.228Z,15.7
2023-05-03T11:30:55.534Z,15.6
2023-05-03T11:32:09.837Z,15.6
2023-05-03T11:33:24.142Z,15.5
2023-05-03T11:35:52.745Z,15.7
2023-05-03T11:37:07.026Z,15.8
2023-05-03T11:38:20.386Z,16.1
2023-05-03T11:39:34.677Z,16.3
2023-05-03T11:40:48.993Z,15.7
2023-05-03T11:42:03.290Z,15
2023-05-03T11:43:17.590Z,15.1
2023-05-03T11:44:31.886Z,15.4
2023-05-03T11:45:46.187Z,15.5
2023-05-03T11:47:00.486Z,15.7
2023-05-03T11:48:14.793Z,15.9
2023-05-03T11:49:29.087Z,15.9
2023-05-03T11:50:43.382Z,15.6
2023-05-03T11:51:57.678Z,14.5
2023-05-03T11:53:11.984Z,14.4
2023-05-03T11:54:25.341Z,14.3
2023-05-03T11:55:39.632Z,14.3
2023-05-03T11:56:53.944Z,14.2
2023-05-03T11:58:08.252Z,14.5
2023-05-03T11:59:22.541Z,15
2023-05-03T12:00:36.846Z,15.1
2023-05-03T12:01:51.134Z,15
2023-05-03T12:03:05.448Z,15.2
2023-05-03T12:04:19.735Z,15.5
2023-05-03T12:05:34.030Z,15.5
2023-05-03T12:06:48.340Z,15.5
2023-05-03T12:08:02.632Z,15.6
2023-05-03T12:09:16.958Z,15.8
2023-05-03T12:10:31.242Z,16.1
2023-05-03T12:12:59.852Z,16.4
2023-05-03T12:14:14.143Z,16.2
2023-05-03T12:15:27.502Z,16.3
2023-05-03T12:16:41.783Z,16.3
2023-05-03T12:17:56.089Z,16.3
2023-05-03T12:19:10.387Z,16.2
2023-05-03T12:20:24.686Z,15.8
2023-05-03T12:21:38.983Z,15.8
2023-05-03T12:24:06.651Z,15.9
2023-05-03T12:25:20.943Z,16
2023-05-03T12:26:34.000Z,16.1
2023-05-03T12:27:48.611Z,16
2023-05-03T12:29:02.906Z,15.6
2023-05-03T12:30:17.213Z,15.7
2023-05-03T12:31:31.507Z,15.9
2023-05-03T12:32:45.818Z,16.2
2023-05-03T12:34:00.120Z,16.3
2023-05-03T12:35:14.426Z,16.1
2023-05-03T12:36:28.717Z,15.9
2023-05-03T12:37:43.023Z,16.2
2023-05-03T12:40:11.606Z,15.7
2023-05-03T12:42:40.223Z,15
2023-05-03T12:43:54.536Z,15
2023-05-03T12:45:07.887Z,15.2
2023-05-03T12:46:21.242Z,15.7
2023-05-03T12:47:35.526Z,16
2023-05-03T12:48:49.826Z,15.7
2023-05-03T12:50:04.127Z,15.7
2023-05-03T12:51:18.440Z,15.2
2023-05-03T12:52:32.747Z,15
2023-05-03T12:53:47.041Z,15.3
2023-05-03T12:55:01.337Z,15.6
2023-05-03T12:56:15.629Z,15.7
2023-05-03T12:57:29.937Z,16
2023-05-03T12:58:44.234Z,16.5
2023-05-03T12:59:58.549Z,16.5
2023-05-03T13:01:12.851Z,16.6
2023-05-03T13:02:27.148Z,16.8
2023-05-03T13:03:40.511Z,16.8
2023-05-03T13:04:53.884Z,17
2023-05-03T13:06:08.151Z,17
2023-05-03T13:08:36.754Z,17.1
2023-05-03T13:09:51.050Z,17.3
2023-05-03T13:11:05.378Z,17.1
2023-05-03T13:12:19.666Z,17.2
2023-05-03T13:13:33.977Z,17.2
2023-05-03T13:14:48.266Z,17.4
2023-05-03T13:16:02.562Z,17.5
2023-05-03T13:17:16.868Z,17.6
2023-05-03T13:18:31.166Z,17.5
2023-05-03T13:19:45.473Z,16.6
2023-05-03T13:20:59.761Z,15.6
2023-05-03T13:22:13.112Z,15
2023-05-03T13:24:41.000Z,15.3
2023-05-03T13:25:55.092Z,15.4
2023-05-03T13:27:09.387Z,15.5
2023-05-03T13:28:23.682Z,15.9
2023-05-03T13:29:37.993Z,16.3
2023-05-03T13:30:52.300Z,16.4
2023-05-03T13:32:06.581Z,16.1
2023-05-03T13:33:20.893Z,16.5
2023-05-03T13:34:35.178Z,17.2
2023-05-03T13:35:49.485Z,17.5
2023-05-03T13:37:03.799Z,17.7
2023-05-03T13:38:18.104Z,17.8
2023-05-03T13:39:32.522Z,17.9
2023-05-03T13:40:46.834Z,18
2023-05-03T13:42:01.251Z,17.9
2023-05-03T13:43:15.559Z,17.3
2023-05-03T13:44:29.862Z,17.3
2023-05-03T13:46:58.450Z,18.2
2023-05-03T13:48:12.758Z,18
2023-05-03T13:49:27.052Z,18
2023-05-03T13:50:41.361Z,18.6
2023-05-03T13:53:09.966Z,17.4
2023-05-03T13:54:24.252Z,17
2023-05-03T13:55:38.570Z,16.4
2023-05-03T13:56:52.859Z,15.7
2023-05-03T13:58:07.165Z,15.6
2023-05-03T13:59:20.521Z,16.1
2023-05-03T14:00:34.859Z,16.3
2023-05-03T14:01:49.125Z,16.4
2023-05-03T14:04:16.789Z,17.2
2023-05-03T14:05:31.077Z,17.9
2023-05-03T14:06:45.396Z,18.3
2023-05-03T14:07:59.680Z,18.6
2023-05-03T14:09:13.977Z,18.9
2023-05-03T14:10:28.293Z,19.2
2023-05-03T14:11:42.587Z,19.3
2023-05-03T14:15:25.495Z,18.9
2023-05-03T14:16:38.854Z,19.1
2023-05-03T14:17:52.198Z,19.6
2023-05-03T14:21:35.111Z,20.2
2023-05-03T14:22:49.419Z,20
2023-05-03T14:24:03.705Z,19.7
2023-05-03T14:25:18.020Z,19.8
2023-05-03T14:26:32.319Z,20
2023-05-03T14:27:46.614Z,19.6
2023-05-03T14:29:00.924Z,19
2023-05-03T14:31:29.524Z,19.4
2023-05-03T14:32:43.831Z,18.9
2023-05-03T14:33:58.125Z,18.7
2023-05-03T14:35:12.433Z,18.8
2023-05-03T14:36:25.778Z,19.1
2023-05-03T14:37:40.070Z,19.4
2023-05-03T14:38:54.379Z,19.8
2023-05-03T14:40:08.678Z,20.3
2023-05-03T14:41:22.966Z,19.3
2023-05-03T14:42:37.282Z,19.2
2023-05-03T14:43:51.586Z,19
2023-05-03T14:45:05.873Z,18.9
2023-05-03T14:46:20.180Z,18.9
2023-05-03T14:47:34.488Z,18.8
2023-05-03T14:48:48.776Z,19
2023-05-03T14:50:03.088Z,19.8
2023-05-03T14:51:17.371Z,20.2
2023-05-03T14:52:31.677Z,20.6
2023-05-03T14:53:45.977Z,21
2023-05-03T14:56:13.640Z,21.2
2023-05-03T14:57:27.026Z,21.1
2023-05-03T14:58:40.367Z,21
2023-05-03T14:59:54.667Z,20.3
2023-05-03T15:01:08.965Z,20.1
2023-05-03T15:02:23.260Z,19.7
2023-05-03T15:04:51.880Z,18.6
2023-05-03T15:06:06.160Z,17.6
2023-05-03T15:07:20.471Z,17.1
2023-05-03T15:08:34.773Z,17.6
2023-05-03T15:09:49.080Z,18.5
2023-05-03T15:12:17.681Z,19.6
2023-05-03T15:13:31.966Z,19.8
2023-05-03T15:14:46.284Z,20.6
2023-05-03T15:16:00.565Z,21
2023-05-03T15:18:29.170Z,21.1
2023-05-03T15:19:43.478Z,21.1
2023-05-03T15:20:56.846Z,20.4
2023-05-03T15:22:11.151Z,19.2
2023-05-03T15:23:25.451Z,19.3
2023-05-03T15:24:39.755Z,20.3
2023-05-03T15:25:54.041Z,20.7
2023-05-03T15:27:08.336Z,21.1
2023-05-03T15:28:22.644Z,20.8
2023-05-03T15:29:36.951Z,20.8
2023-05-03T15:30:51.241Z,20.5
2023-05-03T15:32:05.542Z,19.8
2023-05-03T15:33:19.841Z,18.8
2023-05-03T15:34:34.142Z,18.9
2023-05-03T15:35:47.513Z,19.6
2023-05-03T15:37:01.821Z,20.1
2023-05-03T15:38:16.128Z,20.6
2023-05-03T15:39:30.429Z,20.6
2023-05-03T15:40:44.724Z,20.8
2023-05-03T15:41:59.034Z,20.2
2023-05-03T15:43:13.320Z,20.6
2023-05-03T15:44:27.621Z,21
2023-05-03T15:46:55.271Z,21.7
2023-05-03T15:48:09.581Z,21.4
2023-05-03T15:49:23.863Z,21.2
2023-05-03T15:50:38.169Z,21.1
2023-05-03T15:51:52.479Z,20.8
2023-05-03T15:53:06.791Z,20.6
2023-05-03T15:54:21.072Z,20.4
2023-05-03T15:55:35.366Z,20.6
2023-05-03T15:56:49.666Z,20.9
2023-05-03T15:58:03.989Z,21.4
2023-05-03T15:59:18.276Z,21.6
2023-05-03T16:00:32.572Z,21.5
2023-05-03T16:01:46.872Z,21.6
2023-05-03T16:03:01.175Z,21.7
2023-05-03T16:04:15.481Z,21.7
2023-05-03T16:05:29.774Z,21.8
2023-05-03T16:06:44.079Z,22.1
2023-05-03T16:07:58.370Z,22
2023-05-03T16:09:11.760Z,21
2023-05-03T16:10:26.038Z,19.6
2023-05-03T16:11:40.345Z,19.5
2023-05-03T16:12:53.687Z,20
2023-05-03T16:14:08.003Z,20.1
2023-05-03T16:15:22.292Z,20.4
2023-05-03T16:17:50.906Z,20.6
2023-05-03T16:19:05.195Z,20.5
2023-05-03T16:20:19.495Z,20.6
2023-05-03T16:21:33.795Z,20.6
2023-05-03T16:22:48.099Z,20.5
2023-05-03T16:24:02.407Z,20.7
2023-05-03T16:25:16.698Z,19.9
2023-05-03T16:26:31.005Z,20.2
2023-05-03T16:28:59.612Z,21
2023-05-03T16:30:13.898Z,21.1
2023-05-03T16:31:27.278Z,21.1
2023-05-03T16:33:54.927Z,20.9
2023-05-03T16:35:09.228Z,20.1
2023-05-03T16:36:23.532Z,19.4
2023-05-03T16:37:37.825Z,19.1
2023-05-03T16:40:06.416Z,17.9
2023-05-03T16:41:19.808Z,17.4
2023-05-03T16:42:34.083Z,16.9
2023-05-03T16:45:02.680Z,16.3
2023-05-03T16:46:16.991Z,15.5
2023-05-03T16:47:31.288Z,15.1
2023-05-03T16:48:45.584Z,15.1
2023-05-03T16:49:58.946Z,15.1
2023-05-03T16:51:13.249Z,15
2023-05-03T16:52:27.552Z,14.7
2023-05-03T16:53:41.847Z,14.6
2023-05-03T16:56:10.465Z,14.7
2023-05-03T16:57:24.757Z,14.8
2023-05-03T16:58:38.105Z,14.8
2023-05-03T16:59:52.412Z,14.9
2023-05-03T17:01:06.730Z,14.9
2023-05-03T17:02:21.019Z,14.9
2023-05-03T17:03:35.298Z,15
2023-05-03T17:04:49.604Z,15
2023-05-03T17:06:03.904Z,15
2023-05-03T17:07:18.211Z,14.9
2023-05-03T17:08:32.514Z,14.8
2023-05-03T17:09:46.798Z,14.8
2023-05-03T17:11:01.112Z,14.8
2023-05-03T17:13:29.726Z,14.8
2023-05-03T17:14:44.018Z,14.7
2023-05-03T17:15:58.315Z,14.6
2023-05-03T17:17:12.637Z,14.6
2023-05-03T17:18:26.917Z,14.7
2023-05-03T17:19:40.265Z,14.7
2023-05-03T17:20:54.556Z,14.7
2023-05-03T17:22:07.918Z,14.6
2023-05-03T17:24:35.571Z,14.6
2023-05-03T17:25:49.884Z,14.6
2023-05-03T17:27:04.170Z,14.6
2023-05-03T17:28:18.470Z,14.6
2023-05-03T17:29:32.789Z,14.5
2023-05-03T17:30:47.082Z,14.5
2023-05-03T17:32:01.397Z,14.5
2023-05-03T17:33:15.683Z,14.4
2023-05-03T17:35:44.270Z,14.4
2023-05-03T17:36:58.571Z,14.4
2023-05-03T17:38:12.904Z,14.4
2023-05-03T17:39:27.177Z,14.4
2023-05-03T17:40:41.475Z,14.4
2023-05-03T17:41:54.823Z,14.3
2023-05-03T17:43:09.135Z,14.3
2023-05-03T17:44:23.426Z,14.3
2023-05-03T17:45:37.732Z,14.2
2023-05-03T17:46:52.018Z,14.2
2023-05-03T17:48:06.338Z,14.2
2023-05-03T17:49:20.630Z,14.2
2023-05-03T17:51:49.223Z,14
2023-05-03T17:53:03.539Z,14
2023-05-03T17:54:17.843Z,14
2023-05-03T17:55:32.119Z,14
2023-05-03T17:56:46.431Z,14
2023-05-03T17:58:00.740Z,13.9
2023-05-03T17:59:15.030Z,13.9
2023-05-03T18:00:28.372Z,13.9
2023-05-03T18:01:42.672Z,13.9
2023-05-03T18:02:56.987Z,13.8
2023-05-03T18:04:10.350Z,13.7
2023-05-03T18:05:24.656Z,13.6
2023-05-03T18:06:38.965Z,13.6
2023-05-03T18:07:53.249Z,13.5
2023-05-03T18:09:07.545Z,13.5
2023-05-03T18:10:20.895Z,13.5
2023-05-03T18:11:35.217Z,13.5
2023-05-03T18:12:49.493Z,13.5
2023-05-03T18:14:03.796Z,13.4
2023-05-03T18:15:18.091Z,13.4
2023-05-03T18:16:32.412Z,13.3
2023-05-03T18:17:46.702Z,13.3